sensor_id;sensor_type;location;lat;lon;timestamp;pressure;altitude;pressure_sealevel;temperature;humidity
59487;BME280;45298;54.918;73.504;2023-03-03T00:00:06;98906.75;;;-13.58;77.19
59487;BME280;45298;54.918;73.504;2023-03-03T00:02:38;98886.91;;;-13.76;76.30
59487;BME280;45298;54.918;73.504;2023-03-03T00:05:07;98907.53;;;-13.62;76.91
59487;BME280;45298;54.918;73.504;2023-03-03T00:07:36;98887.66;;;-13.83;76.68
59487;BME280;45298;54.918;73.504;2023-03-03T00:10:05;98888.44;;;-13.86;77.07
59487;BME280;45298;54.918;73.504;2023-03-03T00:12:34;98883.09;;;-14.00;76.69
59487;BME280;45298;54.918;73.504;2023-03-03T00:15:21;98898.56;;;-13.90;77.33
59487;BME280;45298;54.918;73.504;2023-03-03T00:17:50;98911.28;;;-13.90;77.32
59487;BME280;45298;54.918;73.504;2023-03-03T00:20:37;98927.44;;;-13.90;77.18
59487;BME280;45298;54.918;73.504;2023-03-03T00:25:45;98900.66;;;-14.15;77.15
59487;BME280;45298;54.918;73.504;2023-03-03T00:30:57;98886.75;;;-14.33;77.23
59487;BME280;45298;54.918;73.504;2023-03-03T00:33:27;98932.88;;;-14.19;77.31
59487;BME280;45298;54.918;73.504;2023-03-03T00:36:44;98883.28;;;-14.36;77.15
59487;BME280;45298;54.918;73.504;2023-03-03T00:38:49;98877.25;;;-14.40;77.79
59487;BME280;45298;54.918;73.504;2023-03-03T00:41:26;98819.50;;;-14.89;76.92
59487;BME280;45298;54.918;73.504;2023-03-03T00:43:56;98904.34;;;-14.44;77.96
59487;BME280;45298;54.918;73.504;2023-03-03T00:46:25;98915.44;;;-14.40;77.10
59487;BME280;45298;54.918;73.504;2023-03-03T00:48:53;98911.00;;;-14.50;77.74
59487;BME280;45298;54.918;73.504;2023-03-03T00:53:51;98892.03;;;-14.68;77.11
59487;BME280;45298;54.918;73.504;2023-03-03T00:56:20;98897.09;;;-14.66;77.55
59487;BME280;45298;54.918;73.504;2023-03-03T00:58:49;98931.38;;;-14.50;77.42
59487;BME280;45298;54.918;73.504;2023-03-03T01:01:20;98916.59;;;-14.70;77.38
59487;BME280;45298;54.918;73.504;2023-03-03T01:03:52;98896.91;;;-14.79;77.79
59487;BME280;45298;54.918;73.504;2023-03-03T01:06:20;98920.03;;;-14.68;77.87
59487;BME280;45298;54.918;73.504;2023-03-03T01:08:49;98919.88;;;-14.74;77.79
59487;BME280;45298;54.918;73.504;2023-03-03T01:11:23;98934.44;;;-14.68;77.54
59487;BME280;45298;54.918;73.504;2023-03-03T01:13:54;98844.94;;;-15.28;77.38
59487;BME280;45298;54.918;73.504;2023-03-03T01:16:26;98922.28;;;-14.80;77.79
59487;BME280;45298;54.918;73.504;2023-03-03T01:18:54;98930.06;;;-14.74;77.77
59487;BME280;45298;54.918;73.504;2023-03-03T01:21:26;98962.56;;;-14.61;77.66
59487;BME280;45298;54.918;73.504;2023-03-03T01:23:55;98960.00;;;-14.61;77.93
59487;BME280;45298;54.918;73.504;2023-03-03T01:26:23;98905.03;;;-14.95;77.74
59487;BME280;45298;54.918;73.504;2023-03-03T01:28:52;98968.47;;;-14.63;77.92
59487;BME280;45298;54.918;73.504;2023-03-03T01:31:21;98928.03;;;-14.91;78.05
59487;BME280;45298;54.918;73.504;2023-03-03T01:33:50;98936.56;;;-14.89;77.16
59487;BME280;45298;54.918;73.504;2023-03-03T01:36:23;98953.69;;;-14.81;77.75
59487;BME280;45298;54.918;73.504;2023-03-03T01:38:53;98933.03;;;-14.94;77.71
59487;BME280;45298;54.918;73.504;2023-03-03T01:41:22;98934.66;;;-14.97;77.17
59487;BME280;45298;54.918;73.504;2023-03-03T01:43:51;98944.94;;;-14.93;77.00
59487;BME280;45298;54.918;73.504;2023-03-03T01:49:02;98968.66;;;-14.94;77.58
59487;BME280;45298;54.918;73.504;2023-03-03T01:51:46;98969.28;;;-15.04;77.12
59487;BME280;45298;54.918;73.504;2023-03-03T01:54:20;98973.44;;;-15.08;77.17
59487;BME280;45298;54.918;73.504;2023-03-03T01:56:54;98945.84;;;-15.27;78.12
59487;BME280;45298;54.918;73.504;2023-03-03T01:59:32;98928.59;;;-15.39;77.65
59487;BME280;45298;54.918;73.504;2023-03-03T02:02:03;98868.22;;;-15.85;77.25
59487;BME280;45298;54.918;73.504;2023-03-03T02:04:33;98939.38;;;-15.51;77.00
59487;BME280;45298;54.918;73.504;2023-03-03T02:07:06;98975.34;;;-15.34;77.57
59487;BME280;45298;54.918;73.504;2023-03-03T02:12:54;98947.94;;;-15.46;77.63
59487;BME280;45298;54.918;73.504;2023-03-03T02:15:28;98948.19;;;-15.37;77.58
59487;BME280;45298;54.918;73.504;2023-03-03T02:18:02;98934.47;;;-15.42;76.92
59487;BME280;45298;54.918;73.504;2023-03-03T02:26:38;98952.78;;;-15.22;77.55
59487;BME280;45298;54.918;73.504;2023-03-03T02:29:09;98966.63;;;-15.09;77.81
59487;BME280;45298;54.918;73.504;2023-03-03T02:31:40;98946.09;;;-15.16;77.47
59487;BME280;45298;54.918;73.504;2023-03-03T02:34:10;98961.78;;;-14.98;77.49
59487;BME280;45298;54.918;73.504;2023-03-03T02:36:40;98934.50;;;-15.05;77.87
59487;BME280;45298;54.918;73.504;2023-03-03T02:39:24;98967.25;;;-14.82;76.69
59487;BME280;45298;54.918;73.504;2023-03-03T02:42:08;98958.91;;;-14.75;77.11
59487;BME280;45298;54.918;73.504;2023-03-03T02:44:45;98973.84;;;-14.49;77.10
59487;BME280;45298;54.918;73.504;2023-03-03T02:47:14;98969.75;;;-14.41;77.24
59487;BME280;45298;54.918;73.504;2023-03-03T02:49:42;99000.78;;;-14.19;77.33
59487;BME280;45298;54.918;73.504;2023-03-03T02:52:12;98975.38;;;-14.16;77.03
59487;BME280;45298;54.918;73.504;2023-03-03T02:54:44;98987.75;;;-13.90;76.94
59487;BME280;45298;54.918;73.504;2023-03-03T02:57:14;98986.59;;;-13.60;76.38
59487;BME280;45298;54.918;73.504;2023-03-03T02:59:42;98971.16;;;-13.70;76.14
59487;BME280;45298;54.918;73.504;2023-03-03T03:02:15;98889.63;;;-14.14;76.10
59487;BME280;45298;54.918;73.504;2023-03-03T03:04:46;98992.94;;;-13.37;75.91
59487;BME280;45298;54.918;73.504;2023-03-03T03:07:20;98933.03;;;-13.63;76.01
59487;BME280;45298;54.918;73.504;2023-03-03T03:09:49;98958.22;;;-13.28;76.11
59487;BME280;45298;54.918;73.504;2023-03-03T03:12:18;98947.84;;;-12.81;75.64
59487;BME280;45298;54.918;73.504;2023-03-03T03:14:51;98964.94;;;-12.77;75.23
59487;BME280;45298;54.918;73.504;2023-03-03T03:17:20;98996.78;;;-12.53;74.00
59487;BME280;45298;54.918;73.504;2023-03-03T03:19:50;98999.31;;;-12.54;74.42
59487;BME280;45298;54.918;73.504;2023-03-03T03:22:19;98978.31;;;-12.32;73.43
59487;BME280;45298;54.918;73.504;2023-03-03T03:24:48;99014.19;;;-11.51;72.71
59487;BME280;45298;54.918;73.504;2023-03-03T03:27:17;98980.38;;;-11.18;72.42
59487;BME280;45298;54.918;73.504;2023-03-03T03:29:48;98983.34;;;-10.60;70.96
59487;BME280;45298;54.918;73.504;2023-03-03T03:32:17;98963.78;;;-10.38;70.27
59487;BME280;45298;54.918;73.504;2023-03-03T03:34:46;98961.25;;;-10.34;70.50
59487;BME280;45298;54.918;73.504;2023-03-03T03:37:15;98965.69;;;-9.88;69.31
59487;BME280;45298;54.918;73.504;2023-03-03T03:39:45;98994.94;;;-9.23;68.47
59487;BME280;45298;54.918;73.504;2023-03-03T03:42:14;98988.06;;;-9.07;68.01
59487;BME280;45298;54.918;73.504;2023-03-03T03:44:43;98964.09;;;-8.92;67.29
59487;BME280;45298;54.918;73.504;2023-03-03T03:47:13;98962.38;;;-8.66;66.92
59487;BME280;45298;54.918;73.504;2023-03-03T03:49:43;99006.06;;;-8.58;67.17
59487;BME280;45298;54.918;73.504;2023-03-03T03:52:12;98969.19;;;-8.72;67.05
59487;BME280;45298;54.918;73.504;2023-03-03T03:54:41;98896.44;;;-9.02;66.16
59487;BME280;45298;54.918;73.504;2023-03-03T03:57:10;99006.00;;;-8.44;66.35
59487;BME280;45298;54.918;73.504;2023-03-03T03:59:38;98997.47;;;-8.66;66.30
59487;BME280;45298;54.918;73.504;2023-03-03T04:02:07;99006.06;;;-8.55;66.63
59487;BME280;45298;54.918;73.504;2023-03-03T04:04:37;99006.94;;;-8.63;66.62
59487;BME280;45298;54.918;73.504;2023-03-03T04:07:06;99006.88;;;-8.50;66.72
59487;BME280;45298;54.918;73.504;2023-03-03T04:09:38;98987.22;;;-8.64;66.01
59487;BME280;45298;54.918;73.504;2023-03-03T04:12:08;98996.66;;;-8.96;66.35
59487;BME280;45298;54.918;73.504;2023-03-03T04:14:37;98980.38;;;-9.20;66.69
59487;BME280;45298;54.918;73.504;2023-03-03T04:17:06;99005.19;;;-9.19;67.52
59487;BME280;45298;54.918;73.504;2023-03-03T04:19:35;98982.91;;;-9.45;67.83
59487;BME280;45298;54.918;73.504;2023-03-03T04:22:05;98987.19;;;-9.53;68.04
59487;BME280;45298;54.918;73.504;2023-03-03T04:24:35;99023.13;;;-9.41;67.91
59487;BME280;45298;54.918;73.504;2023-03-03T04:27:04;98996.56;;;-9.61;67.71
59487;BME280;45298;54.918;73.504;2023-03-03T04:29:33;98977.69;;;-9.83;67.70
59487;BME280;45298;54.918;73.504;2023-03-03T04:32:02;98985.34;;;-9.88;67.79
59487;BME280;45298;54.918;73.504;2023-03-03T04:34:32;99011.94;;;-9.74;68.09
59487;BME280;45298;54.918;73.504;2023-03-03T04:37:01;98988.78;;;-9.86;68.39
59487;BME280;45298;54.918;73.504;2023-03-03T04:39:30;98957.91;;;-10.08;68.59
59487;BME280;45298;54.918;73.504;2023-03-03T04:41:59;98978.50;;;-9.92;69.29
59487;BME280;45298;54.918;73.504;2023-03-03T04:44:28;98974.25;;;-9.89;68.91
59487;BME280;45298;54.918;73.504;2023-03-03T04:46:58;98981.94;;;-9.87;69.37
59487;BME280;45298;54.918;73.504;2023-03-03T04:49:26;98994.78;;;-9.81;69.38
59487;BME280;45298;54.918;73.504;2023-03-03T04:51:56;98970.75;;;-10.05;68.86
59487;BME280;45298;54.918;73.504;2023-03-03T04:54:26;98988.75;;;-9.94;68.95
59487;BME280;45298;54.918;73.504;2023-03-03T04:56:55;99019.63;;;-9.77;69.69
59487;BME280;45298;54.918;73.504;2023-03-03T04:59:24;98987.03;;;-9.90;69.45
59487;BME280;45298;54.918;73.504;2023-03-03T05:01:53;98999.06;;;-9.83;69.00
59487;BME280;45298;54.918;73.504;2023-03-03T05:04:22;98984.50;;;-9.84;69.89
59487;BME280;45298;54.918;73.504;2023-03-03T05:06:51;98976.84;;;-9.78;69.13
59487;BME280;45298;54.918;73.504;2023-03-03T05:09:20;98978.56;;;-9.64;69.14
59487;BME280;45298;54.918;73.504;2023-03-03T05:11:48;98998.31;;;-9.54;69.41
59487;BME280;45298;54.918;73.504;2023-03-03T05:14:17;98982.91;;;-9.54;68.93
59487;BME280;45298;54.918;73.504;2023-03-03T05:16:46;99011.16;;;-9.26;69.12
59487;BME280;45298;54.918;73.504;2023-03-03T05:19:15;98976.94;;;-9.25;68.73
59487;BME280;45298;54.918;73.504;2023-03-03T05:21:44;98978.66;;;-9.21;68.30
59487;BME280;45298;54.918;73.504;2023-03-03T05:24:13;98983.81;;;-8.96;67.75
59487;BME280;45298;54.918;73.504;2023-03-03T05:26:42;98983.78;;;-8.81;67.99
59487;BME280;45298;54.918;73.504;2023-03-03T05:29:11;98963.25;;;-8.74;68.52
59487;BME280;45298;54.918;73.504;2023-03-03T05:31:39;98996.56;;;-8.40;67.28
59487;BME280;45298;54.918;73.504;2023-03-03T05:34:11;98969.97;;;-8.36;66.83
59487;BME280;45298;54.918;73.504;2023-03-03T05:36:40;98994.72;;;-7.96;67.23
59487;BME280;45298;54.918;73.504;2023-03-03T05:39:09;98986.06;;;-7.78;66.26
59487;BME280;45298;54.918;73.504;2023-03-03T05:41:38;98977.41;;;-7.68;65.88
59487;BME280;45298;54.918;73.504;2023-03-03T05:44:08;98962.69;;;-7.44;65.40
59487;BME280;45298;54.918;73.504;2023-03-03T05:46:37;98984.84;;;-7.18;66.10
59487;BME280;45298;54.918;73.504;2023-03-03T05:49:06;98943.75;;;-7.37;65.10
59487;BME280;45298;54.918;73.504;2023-03-03T05:51:35;98982.09;;;-6.95;65.13
59487;BME280;45298;54.918;73.504;2023-03-03T05:54:04;98948.66;;;-7.06;63.81
59487;BME280;45298;54.918;73.504;2023-03-03T05:56:32;98963.06;;;-6.80;63.67
59487;BME280;45298;54.918;73.504;2023-03-03T05:59:01;98964.72;;;-6.74;64.54
59487;BME280;45298;54.918;73.504;2023-03-03T06:01:30;98956.84;;;-6.57;63.21
59487;BME280;45298;54.918;73.504;2023-03-03T06:04:00;98966.78;;;-6.23;63.36
59487;BME280;45298;54.918;73.504;2023-03-03T06:06:29;98968.34;;;-6.10;62.60
59487;BME280;45298;54.918;73.504;2023-03-03T06:08:58;98963.13;;;-6.05;63.27
59487;BME280;45298;54.918;73.504;2023-03-03T06:11:26;98971.84;;;-6.14;62.22
59487;BME280;45298;54.918;73.504;2023-03-03T06:13:55;98990.88;;;-6.21;62.15
59487;BME280;45298;54.918;73.504;2023-03-03T06:16:24;99002.09;;;-6.27;62.21
59487;BME280;45298;54.918;73.504;2023-03-03T06:18:53;98908.72;;;-6.61;62.89
59487;BME280;45298;54.918;73.504;2023-03-03T06:21:22;98992.97;;;-5.84;62.57
59487;BME280;45298;54.918;73.504;2023-03-03T06:23:51;98980.91;;;-5.82;61.13
59487;BME280;45298;54.918;73.504;2023-03-03T06:26:19;98964.50;;;-5.79;60.81
59487;BME280;45298;54.918;73.504;2023-03-03T06:28:48;98995.06;;;-5.43;61.00
59487;BME280;45298;54.918;73.504;2023-03-03T06:31:21;98974.41;;;-5.47;60.46
59487;BME280;45298;54.918;73.504;2023-03-03T06:33:50;99005.94;;;-5.21;60.36
59487;BME280;45298;54.918;73.504;2023-03-03T06:36:19;98978.06;;;-5.60;59.66
59487;BME280;45298;54.918;73.504;2023-03-03T06:38:48;98996.00;;;-5.49;59.72
59487;BME280;45298;54.918;73.504;2023-03-03T06:41:17;98975.47;;;-5.62;59.98
59487;BME280;45298;54.918;73.504;2023-03-03T06:43:46;98975.41;;;-5.55;60.05
59487;BME280;45298;54.918;73.504;2023-03-03T06:46:15;99014.75;;;-5.35;59.63
59487;BME280;45298;54.918;73.504;2023-03-03T06:48:45;98987.72;;;-5.13;59.67
59487;BME280;45298;54.918;73.504;2023-03-03T06:51:34;99001.09;;;-4.88;58.57
59487;BME280;45298;54.918;73.504;2023-03-03T06:54:33;99009.53;;;-4.75;57.42
59487;BME280;45298;54.918;73.504;2023-03-03T06:57:16;98959.91;;;-4.99;57.95
59487;BME280;45298;54.918;73.504;2023-03-03T06:59:48;98997.34;;;-4.67;58.95
59487;BME280;45298;54.918;73.504;2023-03-03T07:02:20;98915.13;;;-5.01;58.06
59487;BME280;45298;54.918;73.504;2023-03-03T07:04:49;98956.91;;;-4.73;58.58
59487;BME280;45298;54.918;73.504;2023-03-03T07:07:23;98978.69;;;-4.37;58.14
59487;BME280;45298;54.918;73.504;2023-03-03T07:09:54;98948.47;;;-4.37;58.19
59487;BME280;45298;54.918;73.504;2023-03-03T07:12:29;98959.41;;;-4.21;58.21
59487;BME280;45298;54.918;73.504;2023-03-03T08:53:04;98945.84;;;-4.82;59.13
59487;BME280;45298;54.918;73.504;2023-03-03T08:55:37;98844.34;;;-5.46;59.08
59487;BME280;45298;54.918;73.504;2023-03-03T08:58:06;98932.22;;;-4.94;59.56
59487;BME280;45298;54.918;73.504;2023-03-03T09:00:35;98909.00;;;-4.95;60.07
59487;BME280;45298;54.918;73.504;2023-03-03T09:03:05;98920.09;;;-4.89;60.07
59487;BME280;45298;54.918;73.504;2023-03-03T09:05:36;98897.31;;;-5.20;60.07
59487;BME280;45298;54.918;73.504;2023-03-03T09:08:06;98922.38;;;-5.23;60.30
59487;BME280;45298;54.918;73.504;2023-03-03T09:10:35;98922.81;;;-5.53;59.97
59487;BME280;45298;54.918;73.504;2023-03-03T09:13:10;98893.88;;;-5.77;61.05
59487;BME280;45298;54.918;73.504;2023-03-03T09:15:41;98901.00;;;-5.94;61.06
59487;BME280;45298;54.918;73.504;2023-03-03T09:18:19;98921.84;;;-6.07;61.26
59487;BME280;45298;54.918;73.504;2023-03-03T09:20:51;98921.06;;;-6.10;62.02
59487;BME280;45298;54.918;73.504;2023-03-03T09:23:33;98910.13;;;-6.32;62.49
59487;BME280;45298;54.918;73.504;2023-03-03T09:26:22;98908.44;;;-6.37;62.55
59487;BME280;45298;54.918;73.504;2023-03-03T09:29:37;98912.00;;;-6.47;63.36
59487;BME280;45298;54.918;73.504;2023-03-03T09:31:51;98875.09;;;-6.54;63.18
59487;BME280;45298;54.918;73.504;2023-03-03T09:34:24;98912.59;;;-6.23;62.43
59487;BME280;45298;54.918;73.504;2023-03-03T09:36:55;98900.44;;;-6.13;62.67
59487;BME280;45298;54.918;73.504;2023-03-03T09:39:29;98906.53;;;-6.19;63.34
59487;BME280;45298;54.918;73.504;2023-03-03T09:47:56;98884.25;;;-6.26;62.88
59487;BME280;45298;54.918;73.504;2023-03-03T09:53:36;98903.88;;;-6.14;63.84
59487;BME280;45298;54.918;73.504;2023-03-03T10:04:33;98897.72;;;-6.02;63.18
59487;BME280;45298;54.918;73.504;2023-03-03T10:15:24;98901.31;;;-6.16;64.35
59487;BME280;45298;54.918;73.504;2023-03-03T10:18:07;98880.84;;;-6.31;64.17
59487;BME280;45298;54.918;73.504;2023-03-03T10:23:36;98913.34;;;-6.13;64.68
59487;BME280;45298;54.918;73.504;2023-03-03T10:35:04;98904.94;;;-6.32;64.51
59487;BME280;45298;54.918;73.504;2023-03-03T10:41:10;98901.69;;;-6.47;64.35
59487;BME280;45298;54.918;73.504;2023-03-03T10:43:49;98905.22;;;-6.56;64.58
59487;BME280;45298;54.918;73.504;2023-03-03T10:46:35;98885.63;;;-6.72;64.76
59487;BME280;45298;54.918;73.504;2023-03-03T10:52:17;98908.72;;;-6.63;66.01
59487;BME280;45298;54.918;73.504;2023-03-03T11:00:14;98920.84;;;-6.70;65.53
59487;BME280;45298;54.918;73.504;2023-03-03T11:03:02;98888.47;;;-7.00;65.72
59487;BME280;45298;54.918;73.504;2023-03-03T11:05:42;98918.38;;;-6.82;65.66
59487;BME280;45298;54.918;73.504;2023-03-03T11:08:26;98921.81;;;-6.80;65.26
59487;BME280;45298;54.918;73.504;2023-03-03T11:13:54;98934.72;;;-6.85;65.89
59487;BME280;45298;54.918;73.504;2023-03-03T11:16:40;98927.88;;;-6.87;65.89
59487;BME280;45298;54.918;73.504;2023-03-03T11:19:35;98923.69;;;-6.99;67.05
59487;BME280;45298;54.918;73.504;2023-03-03T11:22:13;98924.59;;;-7.05;67.12
59487;BME280;45298;54.918;73.504;2023-03-03T11:25:07;98907.53;;;-7.18;66.85
59487;BME280;45298;54.918;73.504;2023-03-03T11:30:29;98930.66;;;-7.12;66.98
59487;BME280;45298;54.918;73.504;2023-03-03T11:33:20;98914.50;;;-7.33;66.75
59487;BME280;45298;54.918;73.504;2023-03-03T11:36:09;98912.78;;;-7.34;67.77
59487;BME280;45298;54.918;73.504;2023-03-03T11:38:52;98923.06;;;-7.28;67.48
59487;BME280;45298;54.918;73.504;2023-03-03T11:44:43;98940.28;;;-7.31;67.42
59487;BME280;45298;54.918;73.504;2023-03-03T11:46:50;98957.47;;;-7.36;67.98
59487;BME280;45298;54.918;73.504;2023-03-03T11:49:35;98955.81;;;-7.42;67.87
59487;BME280;45298;54.918;73.504;2023-03-03T11:55:19;98925.97;;;-7.76;67.98
59487;BME280;45298;54.918;73.504;2023-03-03T12:03:36;98966.25;;;-7.67;68.54
59487;BME280;45298;54.918;73.504;2023-03-03T12:11:42;98943.28;;;-8.07;68.97
59487;BME280;45298;54.918;73.504;2023-03-03T12:22:16;98976.78;;;-8.16;69.90
59487;BME280;45298;54.918;73.504;2023-03-03T12:25:21;98979.38;;;-8.24;70.29
59487;BME280;45298;54.918;73.504;2023-03-03T12:28:16;98982.81;;;-8.28;69.85
59487;BME280;45298;54.918;73.504;2023-03-03T12:33:54;98988.84;;;-8.40;70.44
59487;BME280;45298;54.918;73.504;2023-03-03T12:36:32;98994.03;;;-8.50;70.99
59487;BME280;45298;54.918;73.504;2023-03-03T12:45:35;99006.06;;;-8.67;71.35
59487;BME280;45298;54.918;73.504;2023-03-03T12:53:50;99013.78;;;-8.78;71.70
59487;BME280;45298;54.918;73.504;2023-03-03T12:56:31;98995.78;;;-9.01;71.83
59487;BME280;45298;54.918;73.504;2023-03-03T12:59:19;99036.91;;;-8.87;72.00
59487;BME280;45298;54.918;73.504;2023-03-03T13:07:35;99016.34;;;-9.17;71.93
59487;BME280;45298;54.918;73.504;2023-03-03T13:10:45;99021.47;;;-9.20;72.01
59487;BME280;45298;54.918;73.504;2023-03-03T13:13:14;99040.31;;;-9.07;72.68
59487;BME280;45298;54.918;73.504;2023-03-03T13:18:43;99039.41;;;-9.21;72.42
59487;BME280;45298;54.918;73.504;2023-03-03T13:21:29;99060.00;;;-9.15;72.89
59487;BME280;45298;54.918;73.504;2023-03-03T13:24:20;99053.13;;;-9.21;72.65
59487;BME280;45298;54.918;73.504;2023-03-03T13:29:36;99052.22;;;-9.45;73.34
59487;BME280;45298;54.918;73.504;2023-03-03T13:32:17;99055.66;;;-9.44;73.07
59487;BME280;45298;54.918;73.504;2023-03-03T13:40:27;99095.88;;;-9.42;73.47
59487;BME280;45298;54.918;73.504;2023-03-03T13:43:07;99073.53;;;-9.69;73.90
59487;BME280;45298;54.918;73.504;2023-03-03T13:45:58;99110.38;;;-9.56;74.28
59487;BME280;45298;54.918;73.504;2023-03-03T14:00:03;99118.81;;;-9.79;75.29
59487;BME280;45298;54.918;73.504;2023-03-03T14:05:54;99132.47;;;-9.86;74.29
59487;BME280;45298;54.918;73.504;2023-03-03T14:08:47;99135.88;;;-9.93;74.92
59487;BME280;45298;54.918;73.504;2023-03-03T14:14:32;99148.59;;;-10.06;74.07
59487;BME280;45298;54.918;73.504;2023-03-03T14:17:20;99049.91;;;-10.70;74.86
59487;BME280;45298;54.918;73.504;2023-03-03T14:22:40;99164.75;;;-10.21;75.11
59487;BME280;45298;54.918;73.504;2023-03-03T14:25:12;99138.97;;;-10.38;73.86
59487;BME280;45298;54.918;73.504;2023-03-03T14:38:23;99177.41;;;-10.41;74.55
59487;BME280;45298;54.918;73.504;2023-03-03T14:41:16;99203.09;;;-10.35;75.58
59487;BME280;45298;54.918;73.504;2023-03-03T14:43:58;99161.09;;;-10.51;74.84
59487;BME280;45298;54.918;73.504;2023-03-03T14:46:35;99188.47;;;-10.45;74.44
59487;BME280;45298;54.918;73.504;2023-03-03T14:49:12;99215.09;;;-10.29;75.08
59487;BME280;45298;54.918;73.504;2023-03-03T14:51:46;99173.88;;;-10.54;75.73
59487;BME280;45298;54.918;73.504;2023-03-03T14:56:59;99212.47;;;-10.40;74.71
59487;BME280;45298;54.918;73.504;2023-03-03T14:59:29;99225.28;;;-10.40;74.77
59487;BME280;45298;54.918;73.504;2023-03-03T15:04:46;99173.63;;;-10.82;75.87
59487;BME280;45298;54.918;73.504;2023-03-03T15:07:35;99234.59;;;-10.48;75.24
59487;BME280;45298;54.918;73.504;2023-03-03T15:10:05;99202.81;;;-10.69;74.59
59487;BME280;45298;54.918;73.504;2023-03-03T15:12:40;99235.41;;;-10.55;74.97
59487;BME280;45298;54.918;73.504;2023-03-03T15:15:19;99205.25;;;-10.78;74.85
59487;BME280;45298;54.918;73.504;2023-03-03T15:20:49;99257.47;;;-10.70;75.96
59487;BME280;45298;54.918;73.504;2023-03-03T15:23:50;99261.72;;;-10.70;75.65
59487;BME280;45298;54.918;73.504;2023-03-03T15:26:43;99259.06;;;-10.78;75.35
59487;BME280;45298;54.918;73.504;2023-03-03T15:32:06;99251.13;;;-11.01;75.65
59487;BME280;45298;54.918;73.504;2023-03-03T15:40:28;99294.56;;;-11.07;75.08
59487;BME280;45298;54.918;73.504;2023-03-03T15:45:47;99316.69;;;-11.13;76.22
59487;BME280;45298;54.918;73.504;2023-03-03T15:54:26;99294.81;;;-11.50;75.32
59487;BME280;45298;54.918;73.504;2023-03-03T15:57:03;99236.34;;;-11.82;75.35
59487;BME280;45298;54.918;73.504;2023-03-03T15:59:45;99348.03;;;-11.29;75.21
59487;BME280;45298;54.918;73.504;2023-03-03T16:02:21;99333.34;;;-11.41;75.20
59487;BME280;45298;54.918;73.504;2023-03-03T16:07:36;99347.78;;;-11.45;74.69
59487;BME280;45298;54.918;73.504;2023-03-03T16:10:23;99330.38;;;-11.66;76.04
59487;BME280;45298;54.918;73.504;2023-03-03T16:16:02;99388.63;;;-11.52;74.80
59487;BME280;45298;54.918;73.504;2023-03-03T16:24:35;99407.25;;;-11.61;75.03
59487;BME280;45298;54.918;73.504;2023-03-03T16:27:26;99407.13;;;-11.66;76.21
59487;BME280;45298;54.918;73.504;2023-03-03T16:35:23;99383.72;;;-11.89;75.48
59487;BME280;45298;54.918;73.504;2023-03-03T16:38:32;99399.06;;;-11.91;75.23
59487;BME280;45298;54.918;73.504;2023-03-03T16:40:55;99404.06;;;-11.95;74.61
59487;BME280;45298;54.918;73.504;2023-03-03T16:43:42;99435.84;;;-11.82;76.00
59487;BME280;45298;54.918;73.504;2023-03-03T16:49:36;99439.22;;;-11.87;75.05
59487;BME280;45298;54.918;73.504;2023-03-03T16:52:11;99406.38;;;-12.11;75.97
59487;BME280;45298;54.918;73.504;2023-03-03T17:02:40;99464.56;;;-11.99;76.45
59487;BME280;45298;54.918;73.504;2023-03-03T17:11:04;99390.03;;;-12.62;76.20
59487;BME280;45298;54.918;73.504;2023-03-03T17:14:00;99483.91;;;-12.12;75.84
59487;BME280;45298;54.918;73.504;2023-03-03T17:17:07;99501.03;;;-12.08;76.77
59487;BME280;45298;54.918;73.504;2023-03-03T17:22:41;99484.25;;;-12.36;76.83
59487;BME280;45298;54.918;73.504;2023-03-03T17:41:24;99545.63;;;-12.35;76.58
59487;BME280;45298;54.918;73.504;2023-03-03T17:55:26;99535.50;;;-12.68;76.33
59487;BME280;45298;54.918;73.504;2023-03-03T17:58:08;99561.34;;;-12.56;76.50
59487;BME280;45298;54.918;73.504;2023-03-03T18:22:51;99509.59;;;-13.19;76.90
59487;BME280;45298;54.918;73.504;2023-03-03T18:25:52;99615.78;;;-12.58;77.52
59487;BME280;45298;54.918;73.504;2023-03-03T18:28:44;99602.84;;;-12.66;76.92
59487;BME280;45298;54.918;73.504;2023-03-03T18:34:07;99656.50;;;-12.65;76.86
59487;BME280;45298;54.918;73.504;2023-03-03T18:36:50;99625.81;;;-12.66;77.28
59487;BME280;45298;54.918;73.504;2023-03-03T18:44:45;99483.69;;;-13.70;77.06
59487;BME280;45298;54.918;73.504;2023-03-03T18:47:15;99649.56;;;-12.69;76.88
59487;BME280;45298;54.918;73.504;2023-03-03T18:50:14;99654.59;;;-12.72;76.53
59487;BME280;45298;54.918;73.504;2023-03-03T18:55:55;99618.78;;;-13.09;76.71
59487;BME280;45298;54.918;73.504;2023-03-03T19:09:04;99663.72;;;-13.14;77.18
59487;BME280;45298;54.918;73.504;2023-03-03T19:11:54;99643.97;;;-13.21;76.99
59487;BME280;45298;54.918;73.504;2023-03-03T19:14:30;99688.66;;;-13.05;76.93
59487;BME280;45298;54.918;73.504;2023-03-03T19:23:02;99688.53;;;-13.10;77.19
59487;BME280;45298;54.918;73.504;2023-03-03T19:25:32;99672.69;;;-13.28;77.65
59487;BME280;45298;54.918;73.504;2023-03-03T19:39:42;99713.69;;;-13.22;77.31
59487;BME280;45298;54.918;73.504;2023-03-03T19:45:37;99701.59;;;-13.29;77.91
59487;BME280;45298;54.918;73.504;2023-03-03T19:51:25;99737.47;;;-13.23;76.91
59487;BME280;45298;54.918;73.504;2023-03-03T19:54:10;99736.63;;;-13.24;77.55
59487;BME280;45298;54.918;73.504;2023-03-03T19:56:54;99710.56;;;-13.44;77.56
59487;BME280;45298;54.918;73.504;2023-03-03T20:11:04;99738.75;;;-13.38;78.03
59487;BME280;45298;54.918;73.504;2023-03-03T20:13:53;99771.41;;;-13.27;78.50
59487;BME280;45298;54.918;73.504;2023-03-03T20:16:36;99778.25;;;-13.26;77.67
59487;BME280;45298;54.918;73.504;2023-03-03T20:19:23;99782.47;;;-13.27;78.27
59487;BME280;45298;54.918;73.504;2023-03-03T20:30:25;99747.63;;;-13.55;78.44
59487;BME280;45298;54.918;73.504;2023-03-03T20:41:49;99801.03;;;-13.32;78.23
59487;BME280;45298;54.918;73.504;2023-03-03T20:53:16;99822.84;;;-13.44;78.09
59487;BME280;45298;54.918;73.504;2023-03-03T20:59:06;99817.41;;;-13.55;78.21
59487;BME280;45298;54.918;73.504;2023-03-03T21:01:48;99811.22;;;-13.61;78.79
59487;BME280;45298;54.918;73.504;2023-03-03T21:06:50;99831.69;;;-13.60;78.11